sensor_id;sensor_type;location;lat;lon;timestamp;pressure;altitude;pressure_sealevel;temperature;humidity
61740;BME280;47645;45.288;12.038;2023-08-21T00:02:58;1018.9146468467347;;;26.9263671875;85.33882901318249
61740;BME280;47645;45.288;12.038;2023-08-21T00:13:00;1019.0261618546266;;;27.7267578125;75.43856083749473
61740;BME280;47645;45.288;12.038;2023-08-21T00:23:01;1019.034707422558;;;26.6970703125;87.96359547448614
61740;BME280;47645;45.288;12.038;2023-08-21T00:33:03;1019.0315501635;;;26.233203125;85.81661922448859
61740;BME280;47645;45.288;12.038;2023-08-21T00:43:05;1019.0131055990823;;;26.1056640625;90.71103998970354
61740;BME280;47645;45.288;12.038;2023-08-21T00:53:07;1018.9366408530561;;;25.845703125;90.83123142167322
61740;BME280;47645;45.288;12.038;2023-08-21T01:03:07;1018.9767709541924;;;26.0701171875;88.23093339128161
61740;BME280;47645;45.288;12.038;2023-08-21T01:13:17;1019.015653945341;;;26.029296875;88.61751478873381
61740;BME280;47645;45.288;12.038;2023-08-21T01:23:26;1019.0341336898417;;;26.156640625;82.32460364276065
61740;BME280;47645;45.288;12.038;2023-08-21T01:33:14;1019.0087508121072;;;26.7275390625;78.09342950289434
61740;BME280;47645;45.288;12.038;2023-08-21T01:43:14;1018.8972036345236;;;25.728515625;90.58300942921002
61740;BME280;47645;45.288;12.038;2023-08-21T01:53:15;1018.9319555916876;;;25.4837890625;91.97116419606225
61740;BME280;47645;45.288;12.038;2023-08-21T02:03:17;1019.0486419140256;;;25.4533203125;91.82928765022818
61740;BME280;47645;45.288;12.038;2023-08-21T02:13:19;1018.9728539737966;;;25.504296875;85.99718830920882
61740;BME280;47645;45.288;12.038;2023-08-21T02:23:20;1018.9786058814907;;;26.156640625;79.69184415412552
61740;BME280;47645;45.288;12.038;2023-08-21T02:33:22;1018.9403119252478;;;25.32578125;92.44254015342004
61740;BME280;47645;45.288;12.038;2023-08-21T02:43:23;1018.951366847791;;;25.7947265625;82.14694993426049
61740;BME280;47645;45.288;12.038;2023-08-21T02:53:25;1019.0549649609079;;;26.146484375;79.24917125845431
61740;BME280;47645;45.288;12.038;2023-08-21T03:03:26;1019.0032739812366;;;25.509375;83.83544511186595
61740;BME280;47645;45.288;12.038;2023-08-21T03:13:28;1018.936903923845;;;25.8048828125;80.75234920257604
61740;BME280;47645;45.288;12.038;2023-08-21T03:23:29;1018.9560783595421;;;25.0708984375;89.41279426718944
61740;BME280;47645;45.288;12.038;2023-08-21T03:33:31;1018.9049440782438;;;24.0208984375;100
61740;BME280;47645;45.288;12.038;2023-08-21T03:43:32;1018.8676517290419;;;23.98515625;100
61740;BME280;47645;45.288;12.038;2023-08-21T03:53:34;1018.8680733059304;;;25.407421875;83.75742843441482
61740;BME280;47645;45.288;12.038;2023-08-21T04:03:35;1018.8295302808281;;;24.3470703125;98.55335394572708
61740;BME280;47645;45.288;12.038;2023-08-21T04:13:37;1018.8641257954749;;;24.0361328125;100
61740;BME280;47645;45.288;12.038;2023-08-21T04:23:38;1018.9559189179857;;;24.000390625;95.43099721742686
61740;BME280;47645;45.288;12.038;2023-08-21T04:33:40;1018.9650373257085;;;25.019921875;91.92878630223761
61740;BME280;47645;45.288;12.038;2023-08-21T04:43:41;1019.0418133936365;;;24.5662109375;95.4354064289167
61740;BME280;47645;45.288;12.038;2023-08-21T04:53:42;1019.0611689290735;;;24.301171875;98.17108113656442
61740;BME280;47645;45.288;12.038;2023-08-21T05:03:44;1019.0787950737715;;;24.280859375;98.31714154045459
61740;BME280;47645;45.288;12.038;2023-08-21T05:13:45;1019.1772226647395;;;24.6427734375;96.21437758079627
61740;BME280;47645;45.288;12.038;2023-08-21T05:23:47;1019.300322047861;;;24.8109375;94.2893045195535
61740;BME280;47645;45.288;12.038;2023-08-21T05:33:48;1019.259389117633;;;25.1880859375;91.81129719366675
61740;BME280;47645;45.288;12.038;2023-08-21T05:43:50;1019.3504215638843;;;25.5296875;89.48576874687998
61740;BME280;47645;45.288;12.038;2023-08-21T05:53:51;1019.4319648689773;;;25.6927734375;88.70684960034855
61740;BME280;47645;45.288;12.038;2023-08-21T06:03:52;1019.4976370395688;;;25.9783203125;86.78916577622437
61740;BME280;47645;45.288;12.038;2023-08-21T06:13:54;1019.472836473085;;;26.166796875;85.7177008273522
61740;BME280;47645;45.288;12.038;2023-08-21T06:23:55;1019.4422642899916;;;26.574609375;84.1198581558245
61740;BME280;47645;45.288;12.038;2023-08-21T06:33:57;1019.428358474958;;;26.9314453125;83.15934429001946
61740;BME280;47645;45.288;12.038;2023-08-21T06:43:58;1019.4292497555722;;;27.359765625;79.87031944599396
61740;BME280;47645;45.288;12.038;2023-08-21T06:53:59;1019.4211400074321;;;27.59921875;78.67871170043993
61740;BME280;47645;45.288;12.038;2023-08-21T07:04:01;1019.4206209236359;;;27.991796875;76.18211712990701
61740;BME280;47645;45.288;12.038;2023-08-21T07:14:02;1019.5136022049442;;;28.4658203125;73.73009336699
61740;BME280;47645;45.288;12.038;2023-08-21T07:24:04;1019.5026681451894;;;28.7716796875;71.94454809433572
61740;BME280;47645;45.288;12.038;2023-08-21T07:34:05;1019.7044326160175;;;29.103125;70.70225112414586
61740;BME280;47645;45.288;12.038;2023-08-21T07:44:08;1019.6611085365643;;;29.53125;68.58646194646657
61740;BME280;47645;45.288;12.038;2023-08-21T07:54:08;1019.6990287389725;;;29.699609375;68.12407054671966
61740;BME280;47645;45.288;12.038;2023-08-21T08:04:11;1019.7420471249475;;;30.2908203125;65.7367933356709
61740;BME280;47645;45.288;12.038;2023-08-21T08:14:11;1019.7019992229285;;;30.4541015625;65.51202878739329
61740;BME280;47645;45.288;12.038;2023-08-21T08:24:13;1019.6814746240286;;;30.8974609375;63.1949776560494
61740;BME280;47645;45.288;12.038;2023-08-21T08:34:15;1019.6991346648173;;;31.019921875;62.9732203319036
61740;BME280;47645;45.288;12.038;2023-08-21T08:44:17;1019.6881120899359;;;31.213671875;61.456527623686284
61740;BME280;47645;45.288;12.038;2023-08-21T08:54:20;1019.6330686089075;;;31.4685546875;60.666597817267245
61740;BME280;47645;45.288;12.038;2023-08-21T09:04:21;1019.5520374130595;;;31.8966796875;56.07260301654161
61740;BME280;47645;45.288;12.038;2023-08-21T09:14:26;1019.5172311739999;;;31.9681640625;56.40936680345704
61740;BME280;47645;45.288;12.038;2023-08-21T09:24:24;1019.5042200323355;;;32.1923828125;55.09035380193146
61740;BME280;47645;45.288;12.038;2023-08-21T09:34:33;1019.4045993313309;;;32.7123046875;55.01117691561193
61740;BME280;47645;45.288;12.038;2023-08-21T09:44:27;1019.328344705554;;;32.865234375;53.00460283320506
61740;BME280;47645;45.288;12.038;2023-08-21T09:54:29;1019.2405158963536;;;33.3955078125;49.37644002915412
61740;BME280;47645;45.288;12.038;2023-08-21T10:04:32;1019.1698527594231;;;33.5943359375;48.37698470353982
61740;BME280;47645;45.288;12.038;2023-08-21T10:14:33;1019.1378330115856;;;34.0072265625;44.649099896376825
61740;BME280;47645;45.288;12.038;2023-08-21T10:24:36;1019.1040750861779;;;35.14921875;45.83326402002298
61740;BME280;47645;45.288;12.038;2023-08-21T10:34:38;1019.1281752816348;;;35.3224609375;36.95264192547693
61740;BME280;47645;45.288;12.038;2023-08-21T10:44:55;1019.0668099854712;;;36.0771484375;35.490855396549904
61740;BME280;47645;45.288;12.038;2023-08-21T10:54:49;1019.0291956582383;;;37.8970703125;40.60946163171194
61740;BME280;47645;45.288;12.038;2023-08-21T11:04:45;1019.01578088721;;;38.034765625;37.04899744670959
61740;BME280;47645;45.288;12.038;2023-08-21T11:14:45;1018.9689670987927;;;38.830078125;38.253358425001736
61740;BME280;47645;45.288;12.038;2023-08-21T11:24:48;1018.9115329357593;;;38.728125;33.764324414739754
61740;BME280;47645;45.288;12.038;2023-08-21T11:34:51;1018.8359207732667;;;39.9517578125;35.22194841543101
61740;BME280;47645;45.288;12.038;2023-08-21T11:44:52;1018.8419449221437;;;40.226953125;33.82314963385947
61740;BME280;47645;45.288;12.038;2023-08-21T11:54:54;1018.7908706037159;;;40.7318359375;34.94939791012115
61740;BME280;47645;45.288;12.038;2023-08-21T12:05:03;1018.7755760960961;;;41.00703125;33.6379042235531
61740;BME280;47645;45.288;12.038;2023-08-21T12:14:59;1018.7107180881676;;;41.195703125;34.50670476825827
61740;BME280;47645;45.288;12.038;2023-08-21T12:25:01;1018.624753724492;;;41.5015625;29.689389939630296
61740;BME280;47645;45.288;12.038;2023-08-21T12:35:05;1018.5541374260087;;;41.7361328125;34.646675093445445
61740;BME280;47645;45.288;12.038;2023-08-21T12:40:06;1018.5157774390655;;;41.980859375;29.680769788408345
61740;BME280;47645;45.288;12.038;2023-08-21T12:50:08;1018.4924163284674;;;42.2306640625;31.503461835242547
61740;BME280;47645;45.288;12.038;2023-08-21T13:00:10;1018.4273492271931;;;41.8076171875;34.25946952857498
61740;BME280;47645;45.288;12.038;2023-08-21T13:10:12;1018.4196156891777;;;42.0625;34.31450556551888
61740;BME280;47645;45.288;12.038;2023-08-21T13:20:14;1018.4148116891739;;;41.970703125;34.117450816816984
61740;BME280;47645;45.288;12.038;2023-08-21T13:30:16;1018.251283621794;;;42.1185546875;33.402000960058416
61740;BME280;47645;45.288;12.038;2023-08-21T13:40:18;1018.1812533131742;;;42.261328125;33.858014030613916
61740;BME280;47645;45.288;12.038;2023-08-21T13:50:21;1018.0431093475239;;;41.9501953125;33.30951037179703
61740;BME280;47645;45.288;12.038;2023-08-21T14:00:23;1017.89701046408;;;41.87890625;34.05918055472709
61740;BME280;47645;45.288;12.038;2023-08-21T14:10:26;1017.7498102258687;;;41.66484375;34.768634989634066
61740;BME280;47645;45.288;12.038;2023-08-21T14:20:28;1017.6927924714178;;;41.87890625;33.02771930682942
61740;BME280;47645;45.288;12.038;2023-08-21T14:30:30;1017.6565180606307;;;41.766796875;30.224456408050155
61740;BME280;47645;45.288;12.038;2023-08-21T14:40:33;1017.5998411164353;;;41.675;33.1773237163127
61740;BME280;47645;45.288;12.038;2023-08-21T14:50:35;1017.5389759699484;;;41.5576171875;34.433473974597405
61740;BME280;47645;45.288;12.038;2023-08-21T15:00:37;1017.3973636171168;;;41.9298828125;33.333874788943426
61740;BME280;47645;45.288;12.038;2023-08-21T15:10:41;1017.4199516568851;;;41.95546875;32.380123753092
61740;BME280;47645;45.288;12.038;2023-08-21T15:20:42;1017.3611114042652;;;41.970703125;32.72385939225312
61740;BME280;47645;45.288;12.038;2023-08-21T15:30:45;1017.2363323858953;;;41.9044921875;28.25743272344983
61740;BME280;47645;45.288;12.038;2023-08-21T15:40:47;1017.1525097483028;;;41.292578125;35.43253394466829
61740;BME280;47645;45.288;12.038;2023-08-21T15:50:50;1017.0778936580434;;;41.18046875;29.017099309123402
61740;BME280;47645;45.288;12.038;2023-08-21T16:00:52;1017.004520580746;;;40.420703125;36.13283894825886
61740;BME280;47645;45.288;12.038;2023-08-21T16:10:54;1016.9296506838069;;;40.32890625;29.598165679983055
61740;BME280;47645;45.288;12.038;2023-08-21T16:20:56;1016.8210632050374;;;39.9109375;35.979207703224525
61740;BME280;47645;45.288;12.038;2023-08-21T16:30:59;1016.7452382792009;;;39.712109375;32.897197011299674
61740;BME280;47645;45.288;12.038;2023-08-21T16:41:01;1016.7624945086386;;;39.3296875;34.93312986222006
61740;BME280;47645;45.288;12.038;2023-08-21T16:51:03;1016.7624357206071;;;38.5701171875;31.383039102949144
61740;BME280;47645;45.288;12.038;2023-08-21T17:01:06;1016.724108618179;;;37.8818359375;33.37492440070562
61740;BME280;47645;45.288;12.038;2023-08-21T17:11:07;1016.7494219181692;;;37.4791015625;40.838247524869736
61740;BME280;47645;45.288;12.038;2023-08-21T17:21:10;1016.7835072449146;;;36.744921875;41.62732328497227
61740;BME280;47645;45.288;12.038;2023-08-21T17:31:12;1016.7025355433373;;;35.9138671875;43.00738362036575
61740;BME280;47645;45.288;12.038;2023-08-21T17:41:14;1016.6931959279449;;;35.3787109375;46.457128397196726
61740;BME280;47645;45.288;12.038;2023-08-21T17:51:16;1016.744250184637;;;34.5783203125;47.704072273160946
61740;BME280;47645;45.288;12.038;2023-08-21T18:01:18;1016.7205358531875;;;33.9052734375;50.02163855870658
61740;BME280;47645;45.288;12.038;2023-08-21T18:11:20;1016.7474507331477;;;33.75234375;52.00016552066448
61740;BME280;47645;45.288;12.038;2023-08-21T18:21:22;1016.8436174299314;;;32.2841796875;55.35697395624891
61740;BME280;47645;45.288;12.038;2023-08-21T18:31:24;1016.999571228863;;;31.8662109375;57.127132909531916
61740;BME280;47645;45.288;12.038;2023-08-21T18:41:26;1017.1446562028756;;;31.44296875;58.360606281735734
61740;BME280;47645;45.288;12.038;2023-08-21T18:51:28;1017.1094711598369;;;30.9587890625;60.3408430036262
61740;BME280;47645;45.288;12.038;2023-08-21T19:01:30;1017.2523713840144;;;30.7751953125;60.544057320722054
61740;BME280;47645;45.288;12.038;2023-08-21T19:11:32;1017.3086358208848;;;30.642578125;58.909217962037474
61740;BME280;47645;45.288;12.038;2023-08-21T19:21:33;1017.315951827477;;;30.1583984375;61.638489043207365
61740;BME280;47645;45.288;12.038;2023-08-21T19:31:35;1017.3879265327255;;;29.806640625;63.644247683867455
61740;BME280;47645;45.288;12.038;2023-08-21T19:41:37;1017.3285638483284;;;30.0615234375;62.89374282964086
61740;BME280;47645;45.288;12.038;2023-08-21T19:51:39;1017.3610619217095;;;29.623046875;64.04325740810354
61740;BME280;47645;45.288;12.038;2023-08-21T20:01:41;1017.4006661348067;;;30.020703125;62.711413970437654
61740;BME280;47645;45.288;12.038;2023-08-21T20:11:43;1017.4333638265708;;;29.194921875;65.359138555175
61740;BME280;47645;45.288;12.038;2023-08-21T20:21:45;1017.414311383889;;;29.312109375;64.96412034491607
61740;BME280;47645;45.288;12.038;2023-08-21T20:31:48;1017.5267030782178;;;29.11328125;65.1400724644817
61740;BME280;47645;45.288;12.038;2023-08-21T20:41:48;1017.5429711441757;;;28.3283203125;67.94034290547414
61740;BME280;47645;45.288;12.038;2023-08-21T20:51:50;1017.6271142667015;;;28.37421875;68.29055633093466
61740;BME280;47645;45.288;12.038;2023-08-21T21:01:52;1017.7484785506548;;;28.0224609375;65.44148477746205
61740;BME280;47645;45.288;12.038;2023-08-21T21:11:53;1017.7702842959402;;;27.7267578125;66.20188075792038
61740;BME280;47645;45.288;12.038;2023-08-21T21:21:55;1017.6731729350495;;;27.9205078125;67.43498408307491
61740;BME280;47645;45.288;12.038;2023-08-21T21:31:57;1017.6223642962503;;;27.905078125;68.44757487486385
61740;BME280;47645;45.288;12.038;2023-08-21T21:41:58;1017.6355595306959;;;27.8083984375;68.30889551725345
61740;BME280;47645;45.288;12.038;2023-08-21T21:52:00;1017.5803419253143;;;27.6400390625;67.99177313078455
61740;BME280;47645;45.288;12.038;2023-08-21T22:02:01;1017.5503622682091;;;27.553515625;68.7095755376044
61740;BME280;47645;45.288;12.038;2023-08-21T22:12:04;1017.5765104280357;;;27.553515625;67.9293633984862
61740;BME280;47645;45.288;12.038;2023-08-21T22:22:05;1017.5629214151553;;;27.660546875;68.0158282674025
61740;BME280;47645;45.288;12.038;2023-08-21T22:32:06;1017.5586460552094;;;28.098828125;65.87460733277257
61740;BME280;47645;45.288;12.038;2023-08-21T22:42:08;1017.5541706243476;;;27.9509765625;66.26090980852608
61740;BME280;47645;45.288;12.038;2023-08-21T22:52:10;1017.622863531202;;;27.3189453125;71.1287769511403
61740;BME280;47645;45.288;12.038;2023-08-21T23:02:11;1017.5699411795606;;;27.273046875;69.27092672111925
61740;BME280;47645;45.288;12.038;2023-08-21T23:12:13;1017.4865681470166;;;27.3138671875;72.11092254179802
61740;BME280;47645;45.288;12.038;2023-08-21T23:22:15;1017.4659216463001;;;26.844921875;72.30375437512478
61740;BME280;47645;45.288;12.038;2023-08-21T23:32:16;1017.4956919359365;;;26.95703125;72.68665841419066
61740;BME280;47645;45.288;12.038;2023-08-21T23:42:18;1017.4701851714115;;;26.86015625;70.9261065122087
61740;BME280;47645;45.288;12.038;2023-08-21T23:52:20;1017.3604732724118;;;27.1150390625;69.05880951248523
